Bitflower — SBJE — position and weather

sailwx.info

Track history (hours):
 
Tides and Currents Weather Stations Pressure Air Temp Water Temp Dewpoint Dewpoint Depression Visibility Wind Speed Wind Dir Waves Ship Positions

Bitflower

Last reported at 2016-May-25 11:29 UTC. Time now 2016-May-25 16:52 UTC.
Position N 54°13' W 005°23'.

Length 116 m; draft 5 m.

Type: Tanker. MMSI: 266009000.

Date/timePositionNaut miles runAvg speedWind from/ knotsBaromVisibWave heightAir tempDewpointWater temp
2016-May-25 11:29N 54°13' W 005°23'1414.8
2016-May-25 10:34N 54°27' W 005°20'1615.9
2016-May-25 09:34N 54°42' W 005°27'1312.7
2016-May-25 08:33N 54°40' W 005°49'4 0.2
2016-May-24 14:31N 54°37' W 005°53'  
2016-May-18 08:33N 49°50' W 003°21'1313.2
2016-May-18 07:33N 49°56' W 003°03'1312.3
2016-May-18 06:31N 50°00' W 002°45'8513.1
2016-May-18 00:03N 50°22' W 000°36'815.5
2016-May-17 23:33N 50°24' W 000°24'1514.8
2016-May-17 22:33N 50°28' W 000°02'1514.1
2016-May-17 21:32N 50°33' E 000°19'3913.0
2016-May-17 18:32N 50°53' E 001°12'1414.3
2016-May-17 17:33N 51°02' E 001°28'1515.3
2016-May-17 16:33N 51°16' E 001°38'1414.2
2016-May-17 15:33N 51°30' E 001°30'1 1.1
2016-May-17 14:33N 51°31' E 001°29'0 0.0
2016-May-17 13:33N 51°31' E 001°29'0 0.0
2016-May-17 12:27N 51°31' E 001°29'5 5.1
2016-May-17 11:34N 51°28' E 001°23'1615.5
2016-May-17 10:33N 51°29' E 000°58'1414.3
2016-May-17 09:33N 51°30' E 000°35'1010.1
2016-May-17 08:34N 51°27' E 000°20'8 7.6
2016-May-17 07:33N 51°31' E 000°08'0 0.0
2016-May-17 06:33N 51°31' E 000°08'0 0.0
2016-May-17 05:27N 51°31' E 000°08'0 0.0
2016-May-17 04:33N 51°31' E 000°08'0 0.0
2016-May-17 03:33N 51°31' E 000°08'0 0.0
2016-May-17 02:29N 51°31' E 000°08'0 0.0
2016-May-17 01:29N 51°31' E 000°08'0 0.0
2016-May-17 00:33N 51°31' E 000°08'0 0.0
2016-May-16 23:33N 51°31' E 000°08'0 0.0
2016-May-16 22:33N 51°31' E 000°08'0 0.0
2016-May-16 21:27N 51°31' E 000°08'0 0.0
2016-May-16 20:27N 51°31' E 000°08'0 0.0
2016-May-16 19:15N 51°31' E 000°08'0 0.0
2016-May-16 18:29N 51°31' E 000°08'0 0.0
2016-May-16 17:33N 51°31' E 000°08'0 0.0
2016-May-16 16:33N 51°31' E 000°08'0 0.0
2016-May-16 15:23N 51°31' E 000°08'0 0.0
2016-May-16 14:11N 51°31' E 000°08'0 0.0
2016-May-16 13:30N 51°31' E 000°08'0 0.0
2016-May-16 12:30N 51°31' E 000°08'0 0.0
2016-May-16 11:30N 51°31' E 000°08'0 0.0
2016-May-16 10:33N 51°31' E 000°08'0 0.0
2016-May-16 09:33N 51°31' E 000°08'5 5.1
2016-May-16 08:34N 51°28' E 000°15'9 8.9
2016-May-16 07:34N 51°30' E 000°29'1515.2
2016-May-16 06:33N 51°29' E 000°53'1515.1
2016-May-16 05:33N 51°29' E 001°18'1110.7
2016-May-16 04:34N 51°29' E 001°35'10 9.8
2016-May-16 03:33N 51°29' E 001°50'10 9.5
2016-May-16 02:33N 51°33' E 002°04'9812.2
2016-May-15 18:33N 52°49' E 003°46'1413.6
2016-May-15 17:33N 52°59' E 004°01'4912.1
2016-May-15 13:33N 53°33' E 004°59'1111.1
2016-May-15 12:34N 53°37' E 005°17'1111.2
2016-May-15 11:34N 53°40' E 005°35'  
Track history (hours):
 
Tides and Currents Weather Stations Pressure Air Temp Water Temp Dewpoint Dewpoint Depression Visibility Wind Speed Wind Dir Waves Ship Positions

Bitflower

Last reported at 2016-May-25 11:29 UTC. Time now 2016-May-25 16:52 UTC.
Position N 54°13' W 005°23'.

Length 116 m; draft 5 m.

Type: Tanker. MMSI: 266009000.

Date/timePositionNaut miles runAvg speedWind from/ knotsBaromVisibWave heightAir tempDewpointWater temp
2016-May-25 11:29N 54°13' W 005°23'1414.8
2016-May-25 10:34N 54°27' W 005°20'1615.9
2016-May-25 09:34N 54°42' W 005°27'1312.7
2016-May-25 08:33N 54°40' W 005°49'4 0.2
2016-May-24 14:31N 54°37' W 005°53'  
2016-May-18 08:33N 49°50' W 003°21'1313.2
2016-May-18 07:33N 49°56' W 003°03'1312.3
2016-May-18 06:31N 50°00' W 002°45'8513.1
2016-May-18 00:03N 50°22' W 000°36'815.5
2016-May-17 23:33N 50°24' W 000°24'1514.8
2016-May-17 22:33N 50°28' W 000°02'1514.1
2016-May-17 21:32N 50°33' E 000°19'3913.0
2016-May-17 18:32N 50°53' E 001°12'1414.3
2016-May-17 17:33N 51°02' E 001°28'1515.3
2016-May-17 16:33N 51°16' E 001°38'1414.2
2016-May-17 15:33N 51°30' E 001°30'1 1.1
2016-May-17 14:33N 51°31' E 001°29'0 0.0
2016-May-17 13:33N 51°31' E 001°29'0 0.0
2016-May-17 12:27N 51°31' E 001°29'5 5.1
2016-May-17 11:34N 51°28' E 001°23'1615.5
2016-May-17 10:33N 51°29' E 000°58'1414.3
2016-May-17 09:33N 51°30' E 000°35'1010.1
2016-May-17 08:34N 51°27' E 000°20'8 7.6
2016-May-17 07:33N 51°31' E 000°08'0 0.0
2016-May-17 06:33N 51°31' E 000°08'0 0.0
2016-May-17 05:27N 51°31' E 000°08'0 0.0
2016-May-17 04:33N 51°31' E 000°08'0 0.0
2016-May-17 03:33N 51°31' E 000°08'0 0.0
2016-May-17 02:29N 51°31' E 000°08'0 0.0
2016-May-17 01:29N 51°31' E 000°08'0 0.0
2016-May-17 00:33N 51°31' E 000°08'0 0.0
2016-May-16 23:33N 51°31' E 000°08'0 0.0
2016-May-16 22:33N 51°31' E 000°08'0 0.0
2016-May-16 21:27N 51°31' E 000°08'0 0.0
2016-May-16 20:27N 51°31' E 000°08'0 0.0
2016-May-16 19:15N 51°31' E 000°08'0 0.0
2016-May-16 18:29N 51°31' E 000°08'0 0.0
2016-May-16 17:33N 51°31' E 000°08'0 0.0
2016-May-16 16:33N 51°31' E 000°08'0 0.0
2016-May-16 15:23N 51°31' E 000°08'0 0.0
2016-May-16 14:11N 51°31' E 000°08'0 0.0
2016-May-16 13:30N 51°31' E 000°08'0 0.0
2016-May-16 12:30N 51°31' E 000°08'0 0.0
2016-May-16 11:30N 51°31' E 000°08'0 0.0
2016-May-16 10:33N 51°31' E 000°08'0 0.0
2016-May-16 09:33N 51°31' E 000°08'5 5.1
2016-May-16 08:34N 51°28' E 000°15'9 8.9
2016-May-16 07:34N 51°30' E 000°29'1515.2
2016-May-16 06:33N 51°29' E 000°53'1515.1
2016-May-16 05:33N 51°29' E 001°18'1110.7
2016-May-16 04:34N 51°29' E 001°35'10 9.8
2016-May-16 03:33N 51°29' E 001°50'10 9.5
2016-May-16 02:33N 51°33' E 002°04'9812.2
2016-May-15 18:33N 52°49' E 003°46'1413.6
2016-May-15 17:33N 52°59' E 004°01'4912.1
2016-May-15 13:33N 53°33' E 004°59'1111.1
2016-May-15 12:34N 53°37' E 005°17'1111.2
2016-May-15 11:34N 53°40' E 005°35'  

Dump ship's entire track history